sensor_id;sensor_type;location;lat;lon;timestamp;temperature;humidity
19180;DHT22;9722;48.754;8.868;2023-03-01T00:00:34;-2.50;72.70
19180;DHT22;9722;48.754;8.868;2023-03-01T00:03:55;-2.60;72.80
19180;DHT22;9722;48.754;8.868;2023-03-01T00:07:16;-2.60;73.10
19180;DHT22;9722;48.754;8.868;2023-03-01T00:10:36;-2.60;73.30
19180;DHT22;9722;48.754;8.868;2023-03-01T00:13:59;-2.60;73.50
19180;DHT22;9722;48.754;8.868;2023-03-01T00:17:21;-2.70;73.60
19180;DHT22;9722;48.754;8.868;2023-03-01T00:20:41;-2.60;73.90
19180;DHT22;9722;48.754;8.868;2023-03-01T00:24:02;-2.70;74.00
19180;DHT22;9722;48.754;8.868;2023-03-01T00:27:23;-2.70;74.10
19180;DHT22;9722;48.754;8.868;2023-03-01T00:30:44;-2.70;74.20
19180;DHT22;9722;48.754;8.868;2023-03-01T00:34:05;-2.80;74.50
19180;DHT22;9722;48.754;8.868;2023-03-01T00:37:25;-2.80;74.70
19180;DHT22;9722;48.754;8.868;2023-03-01T00:40:46;-2.80;75.00
19180;DHT22;9722;48.754;8.868;2023-03-01T00:44:06;-2.80;75.00
19180;DHT22;9722;48.754;8.868;2023-03-01T00:47:29;-2.80;75.10
19180;DHT22;9722;48.754;8.868;2023-03-01T00:50:50;-2.80;75.20
19180;DHT22;9722;48.754;8.868;2023-03-01T00:54:10;-2.90;75.30
19180;DHT22;9722;48.754;8.868;2023-03-01T00:57:31;-2.90;75.50
19180;DHT22;9722;48.754;8.868;2023-03-01T01:00:51;-2.90;75.60
19180;DHT22;9722;48.754;8.868;2023-03-01T01:04:13;-2.90;75.80
19180;DHT22;9722;48.754;8.868;2023-03-01T01:07:34;-3.00;75.80
19180;DHT22;9722;48.754;8.868;2023-03-01T01:10:54;-3.00;76.00
19180;DHT22;9722;48.754;8.868;2023-03-01T01:14:16;-3.00;76.10
19180;DHT22;9722;48.754;8.868;2023-03-01T01:17:37;-3.00;76.40
19180;DHT22;9722;48.754;8.868;2023-03-01T01:20:57;-3.00;76.70
19180;DHT22;9722;48.754;8.868;2023-03-01T01:24:18;-3.10;76.60
19180;DHT22;9722;48.754;8.868;2023-03-01T01:27:39;-3.10;76.60
19180;DHT22;9722;48.754;8.868;2023-03-01T01:30:59;-3.10;76.70
19180;DHT22;9722;48.754;8.868;2023-03-01T01:34:21;-3.20;76.90
19180;DHT22;9722;48.754;8.868;2023-03-01T01:37:42;-3.20;77.10
19180;DHT22;9722;48.754;8.868;2023-03-01T01:41:02;-3.20;77.30
19180;DHT22;9722;48.754;8.868;2023-03-01T01:44:25;-3.30;77.30
19180;DHT22;9722;48.754;8.868;2023-03-01T01:47:46;-3.30;77.40
19180;DHT22;9722;48.754;8.868;2023-03-01T01:51:25;-3.30;77.60
19180;DHT22;9722;48.754;8.868;2023-03-01T01:58:21;-3.40;77.90
19180;DHT22;9722;48.754;8.868;2023-03-01T02:01:43;-3.50;77.90
19180;DHT22;9722;48.754;8.868;2023-03-01T02:05:47;-3.50;78.20
19180;DHT22;9722;48.754;8.868;2023-03-01T02:09:14;-3.50;78.30
19180;DHT22;9722;48.754;8.868;2023-03-01T02:12:36;-3.50;78.40
19180;DHT22;9722;48.754;8.868;2023-03-01T02:15:57;-3.50;78.60
19180;DHT22;9722;48.754;8.868;2023-03-01T02:22:55;-3.50;79.00
19180;DHT22;9722;48.754;8.868;2023-03-01T02:26:34;-3.50;79.00
19180;DHT22;9722;48.754;8.868;2023-03-01T02:29:57;-3.60;78.90
19180;DHT22;9722;48.754;8.868;2023-03-01T02:33:17;-3.50;79.00
19180;DHT22;9722;48.754;8.868;2023-03-01T02:36:41;-3.50;79.00
19180;DHT22;9722;48.754;8.868;2023-03-01T02:40:06;-3.50;79.40
19180;DHT22;9722;48.754;8.868;2023-03-01T02:43:33;-3.50;79.60
19180;DHT22;9722;48.754;8.868;2023-03-01T02:46:56;-3.30;79.90
19180;DHT22;9722;48.754;8.868;2023-03-01T02:57:14;-2.70;79.80
19180;DHT22;9722;48.754;8.868;2023-03-01T03:00:37;-2.50;80.00
19180;DHT22;9722;48.754;8.868;2023-03-01T03:04:09;-2.30;79.90
19180;DHT22;9722;48.754;8.868;2023-03-01T03:07:30;-2.10;79.70
19180;DHT22;9722;48.754;8.868;2023-03-01T03:10:50;-2.00;79.60
19180;DHT22;9722;48.754;8.868;2023-03-01T03:14:13;-1.90;79.40
19180;DHT22;9722;48.754;8.868;2023-03-01T03:17:39;-1.80;79.30
19180;DHT22;9722;48.754;8.868;2023-03-01T03:21:00;-1.70;79.20
19180;DHT22;9722;48.754;8.868;2023-03-01T03:24:20;-1.60;79.00
19180;DHT22;9722;48.754;8.868;2023-03-01T03:27:43;-1.50;79.00
19180;DHT22;9722;48.754;8.868;2023-03-01T03:31:06;-1.40;78.90
19180;DHT22;9722;48.754;8.868;2023-03-01T03:34:27;-1.40;78.80
19180;DHT22;9722;48.754;8.868;2023-03-01T03:37:48;-1.30;78.80
19180;DHT22;9722;48.754;8.868;2023-03-01T03:41:23;-1.20;78.60
19180;DHT22;9722;48.754;8.868;2023-03-01T03:44:44;-1.10;78.60
19180;DHT22;9722;48.754;8.868;2023-03-01T03:48:06;-1.10;78.70
19180;DHT22;9722;48.754;8.868;2023-03-01T03:51:27;-1.00;78.60
19180;DHT22;9722;48.754;8.868;2023-03-01T03:54:47;-0.90;78.40
19180;DHT22;9722;48.754;8.868;2023-03-01T03:58:09;-0.90;78.30
19180;DHT22;9722;48.754;8.868;2023-03-01T04:01:29;-0.70;78.30
19180;DHT22;9722;48.754;8.868;2023-03-01T04:04:50;-0.70;78.10
19180;DHT22;9722;48.754;8.868;2023-03-01T04:08:11;-0.60;78.00
19180;DHT22;9722;48.754;8.868;2023-03-01T04:11:31;-0.60;77.80
19180;DHT22;9722;48.754;8.868;2023-03-01T04:14:54;-0.50;77.80
19180;DHT22;9722;48.754;8.868;2023-03-01T04:18:16;-0.40;77.80
19180;DHT22;9722;48.754;8.868;2023-03-01T04:21:38;-0.40;77.70
19180;DHT22;9722;48.754;8.868;2023-03-01T04:24:58;-0.30;77.60
19180;DHT22;9722;48.754;8.868;2023-03-01T04:28:26;-0.20;77.50
19180;DHT22;9722;48.754;8.868;2023-03-01T04:31:47;-0.20;77.40
19180;DHT22;9722;48.754;8.868;2023-03-01T04:35:09;-0.10;77.40
19180;DHT22;9722;48.754;8.868;2023-03-01T04:38:29;-0.10;77.30
19180;DHT22;9722;48.754;8.868;2023-03-01T04:41:50;0.00;77.30
19180;DHT22;9722;48.754;8.868;2023-03-01T04:45:11;0.00;77.00
19180;DHT22;9722;48.754;8.868;2023-03-01T04:48:35;0.10;77.00
19180;DHT22;9722;48.754;8.868;2023-03-01T04:51:55;0.10;77.00
19180;DHT22;9722;48.754;8.868;2023-03-01T04:55:18;0.10;77.00
19180;DHT22;9722;48.754;8.868;2023-03-01T04:58:39;0.20;77.00
19180;DHT22;9722;48.754;8.868;2023-03-01T05:01:59;0.20;76.80
19180;DHT22;9722;48.754;8.868;2023-03-01T05:05:26;0.30;76.70
19180;DHT22;9722;48.754;8.868;2023-03-01T05:08:46;0.30;76.50
19180;DHT22;9722;48.754;8.868;2023-03-01T05:12:07;0.30;76.50
19180;DHT22;9722;48.754;8.868;2023-03-01T05:15:30;0.40;76.50
19180;DHT22;9722;48.754;8.868;2023-03-01T05:18:51;0.40;76.50
19180;DHT22;9722;48.754;8.868;2023-03-01T05:22:11;0.30;76.20
19180;DHT22;9722;48.754;8.868;2023-03-01T05:25:33;0.40;76.20
19180;DHT22;9722;48.754;8.868;2023-03-01T05:28:54;0.40;76.20
19180;DHT22;9722;48.754;8.868;2023-03-01T05:32:18;0.40;76.10
19180;DHT22;9722;48.754;8.868;2023-03-01T05:35:40;0.40;76.20
19180;DHT22;9722;48.754;8.868;2023-03-01T05:39:02;0.40;76.20
19180;DHT22;9722;48.754;8.868;2023-03-01T05:42:22;0.40;76.10
19180;DHT22;9722;48.754;8.868;2023-03-01T05:45:43;0.40;76.00
19180;DHT22;9722;48.754;8.868;2023-03-01T05:49:04;0.40;75.90
19180;DHT22;9722;48.754;8.868;2023-03-01T05:52:25;0.40;76.00
19180;DHT22;9722;48.754;8.868;2023-03-01T05:55:46;0.40;76.00
19180;DHT22;9722;48.754;8.868;2023-03-01T05:59:07;0.50;76.00
19180;DHT22;9722;48.754;8.868;2023-03-01T06:02:28;0.50;76.00
19180;DHT22;9722;48.754;8.868;2023-03-01T06:05:49;0.50;76.00
19180;DHT22;9722;48.754;8.868;2023-03-01T06:09:09;0.50;76.70
19180;DHT22;9722;48.754;8.868;2023-03-01T06:12:35;0.50;76.00
19180;DHT22;9722;48.754;8.868;2023-03-01T06:15:55;0.50;75.90
19180;DHT22;9722;48.754;8.868;2023-03-01T06:19:16;0.60;75.90
19180;DHT22;9722;48.754;8.868;2023-03-01T06:22:36;0.60;75.90
19180;DHT22;9722;48.754;8.868;2023-03-01T06:25:57;0.60;75.90
19180;DHT22;9722;48.754;8.868;2023-03-01T06:29:18;0.60;75.70
19180;DHT22;9722;48.754;8.868;2023-03-01T06:32:38;0.60;75.60
19180;DHT22;9722;48.754;8.868;2023-03-01T06:36:02;0.60;75.50
19180;DHT22;9722;48.754;8.868;2023-03-01T06:39:22;0.70;76.30
19180;DHT22;9722;48.754;8.868;2023-03-01T06:42:47;0.70;75.40
19180;DHT22;9722;48.754;8.868;2023-03-01T06:46:11;0.70;75.40
19180;DHT22;9722;48.754;8.868;2023-03-01T06:49:32;0.80;75.40
19180;DHT22;9722;48.754;8.868;2023-03-01T06:52:56;0.80;75.30
19180;DHT22;9722;48.754;8.868;2023-03-01T06:56:16;0.90;75.40
19180;DHT22;9722;48.754;8.868;2023-03-01T06:59:37;0.90;75.30
19180;DHT22;9722;48.754;8.868;2023-03-01T07:03:01;1.00;75.20
19180;DHT22;9722;48.754;8.868;2023-03-01T07:06:23;1.00;75.10
19180;DHT22;9722;48.754;8.868;2023-03-01T07:09:44;1.10;75.10
19180;DHT22;9722;48.754;8.868;2023-03-01T07:13:05;1.20;75.00
19180;DHT22;9722;48.754;8.868;2023-03-01T07:16:27;1.30;74.90
19180;DHT22;9722;48.754;8.868;2023-03-01T07:19:47;1.40;74.90
19180;DHT22;9722;48.754;8.868;2023-03-01T07:23:08;1.50;74.80
19180;DHT22;9722;48.754;8.868;2023-03-01T07:26:28;1.70;74.60
19180;DHT22;9722;48.754;8.868;2023-03-01T07:29:49;2.20;74.20
19180;DHT22;9722;48.754;8.868;2023-03-01T07:33:09;3.10;72.70
19180;DHT22;9722;48.754;8.868;2023-03-01T07:36:31;4.00;70.00
19180;DHT22;9722;48.754;8.868;2023-03-01T07:39:51;4.90;67.30
19180;DHT22;9722;48.754;8.868;2023-03-01T07:43:12;5.70;64.90
19180;DHT22;9722;48.754;8.868;2023-03-01T07:46:32;6.20;62.30
19180;DHT22;9722;48.754;8.868;2023-03-01T07:49:53;6.80;60.50
19180;DHT22;9722;48.754;8.868;2023-03-01T07:53:13;7.30;59.00
19180;DHT22;9722;48.754;8.868;2023-03-01T07:56:34;7.80;58.00
19180;DHT22;9722;48.754;8.868;2023-03-01T07:59:55;8.40;56.70
19180;DHT22;9722;48.754;8.868;2023-03-01T08:03:15;8.90;55.70
19180;DHT22;9722;48.754;8.868;2023-03-01T08:06:36;9.40;54.50
19180;DHT22;9722;48.754;8.868;2023-03-01T08:09:57;9.90;53.50
19180;DHT22;9722;48.754;8.868;2023-03-01T08:13:18;10.40;51.50
19180;DHT22;9722;48.754;8.868;2023-03-01T08:16:42;10.80;50.50
19180;DHT22;9722;48.754;8.868;2023-03-01T08:20:03;11.20;49.60
19180;DHT22;9722;48.754;8.868;2023-03-01T08:23:26;11.50;48.80
19180;DHT22;9722;48.754;8.868;2023-03-01T08:26:47;11.90;47.90
19180;DHT22;9722;48.754;8.868;2023-03-01T08:30:08;12.20;47.20
19180;DHT22;9722;48.754;8.868;2023-03-01T08:33:28;12.50;46.30
19180;DHT22;9722;48.754;8.868;2023-03-01T08:36:49;12.80;45.70
19180;DHT22;9722;48.754;8.868;2023-03-01T08:40:12;13.00;45.00
19180;DHT22;9722;48.754;8.868;2023-03-01T08:43:33;13.30;44.40
19180;DHT22;9722;48.754;8.868;2023-03-01T08:46:54;13.50;43.80
19180;DHT22;9722;48.754;8.868;2023-03-01T08:50:15;13.80;43.20
19180;DHT22;9722;48.754;8.868;2023-03-01T08:53:36;14.10;42.90
19180;DHT22;9722;48.754;8.868;2023-03-01T08:56:57;14.30;42.30
19180;DHT22;9722;48.754;8.868;2023-03-01T09:00:19;14.60;41.90
19180;DHT22;9722;48.754;8.868;2023-03-01T09:03:40;14.80;41.40
19180;DHT22;9722;48.754;8.868;2023-03-01T09:07:00;15.00;41.00
19180;DHT22;9722;48.754;8.868;2023-03-01T09:10:21;15.30;40.40
19180;DHT22;9722;48.754;8.868;2023-03-01T09:13:42;15.70;40.60
19180;DHT22;9722;48.754;8.868;2023-03-01T09:17:02;16.00;39.50
19180;DHT22;9722;48.754;8.868;2023-03-01T09:20:23;16.30;39.00
19180;DHT22;9722;48.754;8.868;2023-03-01T09:23:45;16.50;38.40
19180;DHT22;9722;48.754;8.868;2023-03-01T09:27:06;16.80;38.10
19180;DHT22;9722;48.754;8.868;2023-03-01T09:30:28;17.10;37.70
19180;DHT22;9722;48.754;8.868;2023-03-01T09:33:51;17.40;37.80
19180;DHT22;9722;48.754;8.868;2023-03-01T09:37:12;17.70;36.80
19180;DHT22;9722;48.754;8.868;2023-03-01T09:40:35;18.10;36.10
19180;DHT22;9722;48.754;8.868;2023-03-01T09:44:41;18.20;35.70
19180;DHT22;9722;48.754;8.868;2023-03-01T09:48:04;18.60;35.30
19180;DHT22;9722;48.754;8.868;2023-03-01T09:54:51;19.00;34.70
19180;DHT22;9722;48.754;8.868;2023-03-01T10:01:59;18.30;34.30
19180;DHT22;9722;48.754;8.868;2023-03-01T10:09:14;18.50;34.10
19180;DHT22;9722;48.754;8.868;2023-03-01T10:12:40;18.80;33.00
19180;DHT22;9722;48.754;8.868;2023-03-01T10:19:48;19.60;33.00
19180;DHT22;9722;48.754;8.868;2023-03-01T10:23:10;20.10;32.40
19180;DHT22;9722;48.754;8.868;2023-03-01T10:27:48;20.50;32.00
19180;DHT22;9722;48.754;8.868;2023-03-01T10:30:41;21.00;31.60
19180;DHT22;9722;48.754;8.868;2023-03-01T10:34:22;21.40;31.40
19180;DHT22;9722;48.754;8.868;2023-03-01T10:38:06;21.70;30.90
19180;DHT22;9722;48.754;8.868;2023-03-01T10:41:27;22.00;30.30
19180;DHT22;9722;48.754;8.868;2023-03-01T10:44:48;22.00;30.30
19180;DHT22;9722;48.754;8.868;2023-03-01T10:51:34;22.60;29.70
19180;DHT22;9722;48.754;8.868;2023-03-01T10:55:01;22.90;29.50
19180;DHT22;9722;48.754;8.868;2023-03-01T10:58:22;23.10;29.10
19180;DHT22;9722;48.754;8.868;2023-03-01T11:01:43;23.30;29.40
19180;DHT22;9722;48.754;8.868;2023-03-01T11:08:43;23.80;28.70
19180;DHT22;9722;48.754;8.868;2023-03-01T11:12:12;24.10;28.60
19180;DHT22;9722;48.754;8.868;2023-03-01T11:15:33;24.30;28.40
19180;DHT22;9722;48.754;8.868;2023-03-01T11:19:00;24.40;28.30
19180;DHT22;9722;48.754;8.868;2023-03-01T11:22:22;24.80;28.20
19180;DHT22;9722;48.754;8.868;2023-03-01T11:25:48;25.10;27.70
19180;DHT22;9722;48.754;8.868;2023-03-01T11:29:32;25.10;27.50
19180;DHT22;9722;48.754;8.868;2023-03-01T11:36:30;25.50;27.40
19180;DHT22;9722;48.754;8.868;2023-03-01T11:43:32;26.00;26.70
19180;DHT22;9722;48.754;8.868;2023-03-01T11:47:20;26.20;26.50
19180;DHT22;9722;48.754;8.868;2023-03-01T11:50:47;26.30;26.50
19180;DHT22;9722;48.754;8.868;2023-03-01T12:27:49;27.70;25.20
19180;DHT22;9722;48.754;8.868;2023-03-01T12:31:36;27.40;25.00
19180;DHT22;9722;48.754;8.868;2023-03-01T12:38:50;27.40;24.80
19180;DHT22;9722;48.754;8.868;2023-03-01T12:42:43;27.20;24.80
19180;DHT22;9722;48.754;8.868;2023-03-01T12:46:19;27.10;24.80
19180;DHT22;9722;48.754;8.868;2023-03-01T12:49:45;27.20;25.20
19180;DHT22;9722;48.754;8.868;2023-03-01T12:53:29;27.60;24.90
19180;DHT22;9722;48.754;8.868;2023-03-01T12:56:51;28.00;24.60
19180;DHT22;9722;48.754;8.868;2023-03-01T13:00:32;27.90;24.60
19180;DHT22;9722;48.754;8.868;2023-03-01T13:04:20;27.70;24.70
19180;DHT22;9722;48.754;8.868;2023-03-01T13:08:07;27.70;24.80
19180;DHT22;9722;48.754;8.868;2023-03-01T13:11:29;27.70;24.50
19180;DHT22;9722;48.754;8.868;2023-03-01T13:14:53;27.60;24.70
19180;DHT22;9722;48.754;8.868;2023-03-01T13:21:43;27.50;24.50
19180;DHT22;9722;48.754;8.868;2023-03-01T13:25:18;27.30;24.70
19180;DHT22;9722;48.754;8.868;2023-03-01T13:32:28;26.90;24.90
19180;DHT22;9722;48.754;8.868;2023-03-01T13:35:49;26.80;24.90
19180;DHT22;9722;48.754;8.868;2023-03-01T13:39:30;26.70;24.90
19180;DHT22;9722;48.754;8.868;2023-03-01T13:42:55;26.40;24.90
19180;DHT22;9722;48.754;8.868;2023-03-01T13:46:20;26.20;25.00
19180;DHT22;9722;48.754;8.868;2023-03-01T13:49:50;26.00;25.20
19180;DHT22;9722;48.754;8.868;2023-03-01T13:53:20;26.00;25.30
19180;DHT22;9722;48.754;8.868;2023-03-01T13:56:43;25.90;25.40
19180;DHT22;9722;48.754;8.868;2023-03-01T14:00:05;25.90;25.60
19180;DHT22;9722;48.754;8.868;2023-03-01T14:03:26;25.70;25.70
19180;DHT22;9722;48.754;8.868;2023-03-01T14:06:47;25.70;25.90
19180;DHT22;9722;48.754;8.868;2023-03-01T14:10:11;25.50;26.10
19180;DHT22;9722;48.754;8.868;2023-03-01T14:13:47;25.20;25.90
19180;DHT22;9722;48.754;8.868;2023-03-01T14:17:18;24.60;26.10
19180;DHT22;9722;48.754;8.868;2023-03-01T14:20:45;24.10;26.40
19180;DHT22;9722;48.754;8.868;2023-03-01T14:24:22;23.60;26.60
19180;DHT22;9722;48.754;8.868;2023-03-01T14:27:43;23.10;26.90
19180;DHT22;9722;48.754;8.868;2023-03-01T14:34:51;22.20;27.50
19180;DHT22;9722;48.754;8.868;2023-03-01T14:38:33;21.80;27.70
19180;DHT22;9722;48.754;8.868;2023-03-01T14:41:55;21.60;27.90
19180;DHT22;9722;48.754;8.868;2023-03-01T14:45:15;21.40;28.00
19180;DHT22;9722;48.754;8.868;2023-03-01T14:48:36;21.20;28.20
19180;DHT22;9722;48.754;8.868;2023-03-01T14:52:00;21.20;28.50
19180;DHT22;9722;48.754;8.868;2023-03-01T14:55:31;21.00;28.50
19180;DHT22;9722;48.754;8.868;2023-03-01T14:58:53;20.60;28.60
19180;DHT22;9722;48.754;8.868;2023-03-01T15:02:21;19.90;28.90
19180;DHT22;9722;48.754;8.868;2023-03-01T15:05:43;19.30;29.20
19180;DHT22;9722;48.754;8.868;2023-03-01T15:09:04;18.80;29.60
19180;DHT22;9722;48.754;8.868;2023-03-01T15:15:50;17.70;30.60
19180;DHT22;9722;48.754;8.868;2023-03-01T15:19:16;17.20;31.10
19180;DHT22;9722;48.754;8.868;2023-03-01T15:22:38;16.80;31.70
19180;DHT22;9722;48.754;8.868;2023-03-01T15:25:58;16.20;31.90
19180;DHT22;9722;48.754;8.868;2023-03-01T15:29:22;15.40;32.60
19180;DHT22;9722;48.754;8.868;2023-03-01T15:32:43;14.30;33.40
19180;DHT22;9722;48.754;8.868;2023-03-01T15:36:44;13.10;35.00
19180;DHT22;9722;48.754;8.868;2023-03-01T15:40:26;12.00;36.40
19180;DHT22;9722;48.754;8.868;2023-03-01T15:43:53;11.00;37.80
19180;DHT22;9722;48.754;8.868;2023-03-01T15:47:27;10.30;39.00
19180;DHT22;9722;48.754;8.868;2023-03-01T15:50:55;9.70;40.80
19180;DHT22;9722;48.754;8.868;2023-03-01T15:54:22;9.20;41.30
19180;DHT22;9722;48.754;8.868;2023-03-01T15:57:42;8.90;42.20
19180;DHT22;9722;48.754;8.868;2023-03-01T16:01:12;8.60;42.80
19180;DHT22;9722;48.754;8.868;2023-03-01T16:04:34;8.30;43.40
19180;DHT22;9722;48.754;8.868;2023-03-01T16:07:54;8.10;43.80
19180;DHT22;9722;48.754;8.868;2023-03-01T16:11:19;7.90;44.50
19180;DHT22;9722;48.754;8.868;2023-03-01T16:14:40;7.70;45.00
19180;DHT22;9722;48.754;8.868;2023-03-01T16:18:00;7.50;45.40
19180;DHT22;9722;48.754;8.868;2023-03-01T16:21:23;7.30;45.80
19180;DHT22;9722;48.754;8.868;2023-03-01T16:24:44;7.10;46.50
19180;DHT22;9722;48.754;8.868;2023-03-01T16:28:04;7.00;46.40
19180;DHT22;9722;48.754;8.868;2023-03-01T16:31:28;6.80;46.90
19180;DHT22;9722;48.754;8.868;2023-03-01T16:34:49;6.60;47.30
19180;DHT22;9722;48.754;8.868;2023-03-01T16:38:10;6.50;47.50
19180;DHT22;9722;48.754;8.868;2023-03-01T16:41:31;6.30;47.80
19180;DHT22;9722;48.754;8.868;2023-03-01T16:44:55;6.20;48.20
19180;DHT22;9722;48.754;8.868;2023-03-01T16:48:15;6.10;48.40
19180;DHT22;9722;48.754;8.868;2023-03-01T16:51:36;6.00;48.60
19180;DHT22;9722;48.754;8.868;2023-03-01T16:54:57;5.80;48.80
19180;DHT22;9722;48.754;8.868;2023-03-01T16:58:17;5.60;49.10
19180;DHT22;9722;48.754;8.868;2023-03-01T17:01:38;5.50;49.40
19180;DHT22;9722;48.754;8.868;2023-03-01T17:04:59;5.40;49.60
19180;DHT22;9722;48.754;8.868;2023-03-01T17:08:20;5.20;49.80
19180;DHT22;9722;48.754;8.868;2023-03-01T17:11:40;5.10;50.00
19180;DHT22;9722;48.754;8.868;2023-03-01T17:15:01;5.00;50.20
19180;DHT22;9722;48.754;8.868;2023-03-01T17:18:21;4.80;50.40
19180;DHT22;9722;48.754;8.868;2023-03-01T17:21:42;4.70;50.70
19180;DHT22;9722;48.754;8.868;2023-03-01T17:25:02;4.60;51.10
19180;DHT22;9722;48.754;8.868;2023-03-01T17:28:25;4.40;51.50
19180;DHT22;9722;48.754;8.868;2023-03-01T17:31:46;4.30;51.80
19180;DHT22;9722;48.754;8.868;2023-03-01T17:35:07;4.20;52.00
19180;DHT22;9722;48.754;8.868;2023-03-01T17:38:30;4.10;52.10
19180;DHT22;9722;48.754;8.868;2023-03-01T17:41:51;4.00;52.40
19180;DHT22;9722;48.754;8.868;2023-03-01T17:45:12;3.90;52.60
19180;DHT22;9722;48.754;8.868;2023-03-01T17:48:32;3.80;52.80
19180;DHT22;9722;48.754;8.868;2023-03-01T17:51:53;3.70;52.90
19180;DHT22;9722;48.754;8.868;2023-03-01T17:55:14;3.60;53.20
19180;DHT22;9722;48.754;8.868;2023-03-01T17:58:34;3.50;53.10
19180;DHT22;9722;48.754;8.868;2023-03-01T18:01:56;3.40;53.50
19180;DHT22;9722;48.754;8.868;2023-03-01T18:05:16;3.40;53.80
19180;DHT22;9722;48.754;8.868;2023-03-01T18:08:37;3.20;53.90
19180;DHT22;9722;48.754;8.868;2023-03-01T18:11:57;3.10;54.10
19180;DHT22;9722;48.754;8.868;2023-03-01T18:15:18;3.10;54.30
19180;DHT22;9722;48.754;8.868;2023-03-01T18:18:39;3.00;54.50
19180;DHT22;9722;48.754;8.868;2023-03-01T18:22:00;3.00;54.80
19180;DHT22;9722;48.754;8.868;2023-03-01T18:25:20;2.90;55.00
19180;DHT22;9722;48.754;8.868;2023-03-01T18:28:41;2.90;55.80
19180;DHT22;9722;48.754;8.868;2023-03-01T18:32:02;2.80;55.30
19180;DHT22;9722;48.754;8.868;2023-03-01T18:35:23;2.70;55.50
19180;DHT22;9722;48.754;8.868;2023-03-01T18:38:44;2.60;55.80
19180;DHT22;9722;48.754;8.868;2023-03-01T18:42:05;2.60;56.00
19180;DHT22;9722;48.754;8.868;2023-03-01T18:45:25;2.50;56.10
19180;DHT22;9722;48.754;8.868;2023-03-01T18:48:46;2.40;56.20
19180;DHT22;9722;48.754;8.868;2023-03-01T18:52:07;2.40;56.40
19180;DHT22;9722;48.754;8.868;2023-03-01T18:55:27;2.30;56.60
19180;DHT22;9722;48.754;8.868;2023-03-01T18:58:49;2.30;56.70
19180;DHT22;9722;48.754;8.868;2023-03-01T19:02:11;2.20;57.10
19180;DHT22;9722;48.754;8.868;2023-03-01T19:05:32;2.10;57.20
19180;DHT22;9722;48.754;8.868;2023-03-01T19:08:53;2.00;57.40
19180;DHT22;9722;48.754;8.868;2023-03-01T19:12:13;2.00;57.60
19180;DHT22;9722;48.754;8.868;2023-03-01T19:15:34;1.90;57.80
19180;DHT22;9722;48.754;8.868;2023-03-01T19:18:56;1.80;57.90
19180;DHT22;9722;48.754;8.868;2023-03-01T19:22:18;1.70;57.90
19180;DHT22;9722;48.754;8.868;2023-03-01T19:25:39;1.70;58.20
19180;DHT22;9722;48.754;8.868;2023-03-01T19:28:59;1.60;58.50
19180;DHT22;9722;48.754;8.868;2023-03-01T19:32:20;1.60;58.50
19180;DHT22;9722;48.754;8.868;2023-03-01T19:35:41;1.60;58.70
19180;DHT22;9722;48.754;8.868;2023-03-01T19:39:03;1.50;58.80
19180;DHT22;9722;48.754;8.868;2023-03-01T19:42:24;1.50;59.00
19180;DHT22;9722;48.754;8.868;2023-03-01T19:45:54;1.40;59.20
19180;DHT22;9722;48.754;8.868;2023-03-01T19:49:14;1.30;59.40
19180;DHT22;9722;48.754;8.868;2023-03-01T19:52:35;1.30;59.70
19180;DHT22;9722;48.754;8.868;2023-03-01T19:55:57;1.30;59.80
19180;DHT22;9722;48.754;8.868;2023-03-01T19:59:18;1.20;59.90
19180;DHT22;9722;48.754;8.868;2023-03-01T20:02:43;1.20;60.10
19180;DHT22;9722;48.754;8.868;2023-03-01T20:06:16;1.10;60.30
19180;DHT22;9722;48.754;8.868;2023-03-01T20:09:37;1.10;60.40
19180;DHT22;9722;48.754;8.868;2023-03-01T20:12:59;1.00;60.40
19180;DHT22;9722;48.754;8.868;2023-03-01T20:16:21;1.00;60.70
19180;DHT22;9722;48.754;8.868;2023-03-01T20:19:43;0.90;60.90
19180;DHT22;9722;48.754;8.868;2023-03-01T20:23:04;0.90;61.20
19180;DHT22;9722;48.754;8.868;2023-03-01T20:26:24;0.80;61.30
19180;DHT22;9722;48.754;8.868;2023-03-01T20:29:45;0.80;61.60
19180;DHT22;9722;48.754;8.868;2023-03-01T20:33:06;0.80;62.00
19180;DHT22;9722;48.754;8.868;2023-03-01T20:36:27;0.70;62.00
19180;DHT22;9722;48.754;8.868;2023-03-01T20:39:48;0.70;62.30
19180;DHT22;9722;48.754;8.868;2023-03-01T20:43:08;0.60;62.50
19180;DHT22;9722;48.754;8.868;2023-03-01T20:46:29;0.60;62.60
19180;DHT22;9722;48.754;8.868;2023-03-01T20:49:51;0.50;62.80
19180;DHT22;9722;48.754;8.868;2023-03-01T20:53:12;0.50;62.80
19180;DHT22;9722;48.754;8.868;2023-03-01T20:56:32;0.50;63.20
19180;DHT22;9722;48.754;8.868;2023-03-01T20:59:53;0.40;63.40
19180;DHT22;9722;48.754;8.868;2023-03-01T21:03:13;0.40;63.70
19180;DHT22;9722;48.754;8.868;2023-03-01T21:06:34;0.30;63.70
19180;DHT22;9722;48.754;8.868;2023-03-01T21:09:55;0.30;63.90
19180;DHT22;9722;48.754;8.868;2023-03-01T21:13:15;0.20;64.10
19180;DHT22;9722;48.754;8.868;2023-03-01T21:16:36;0.20;64.30
19180;DHT22;9722;48.754;8.868;2023-03-01T21:19:56;0.10;64.30
19180;DHT22;9722;48.754;8.868;2023-03-01T21:23:17;0.10;64.40
19180;DHT22;9722;48.754;8.868;2023-03-01T21:26:38;0.00;64.70
19180;DHT22;9722;48.754;8.868;2023-03-01T21:29:59;0.00;65.00
19180;DHT22;9722;48.754;8.868;2023-03-01T21:33:19;-0.10;65.10
19180;DHT22;9722;48.754;8.868;2023-03-01T21:36:40;-0.10;65.50
19180;DHT22;9722;48.754;8.868;2023-03-01T21:40:00;-0.10;66.00
19180;DHT22;9722;48.754;8.868;2023-03-01T21:43:21;-0.10;66.40
19180;DHT22;9722;48.754;8.868;2023-03-01T21:46:41;-0.10;66.40
19180;DHT22;9722;48.754;8.868;2023-03-01T21:50:02;-0.10;66.60
19180;DHT22;9722;48.754;8.868;2023-03-01T21:53:22;-0.10;66.80
19180;DHT22;9722;48.754;8.868;2023-03-01T21:56:44;-0.10;66.80
19180;DHT22;9722;48.754;8.868;2023-03-01T22:00:05;-0.20;66.90
19180;DHT22;9722;48.754;8.868;2023-03-01T22:03:27;-0.20;67.00
19180;DHT22;9722;48.754;8.868;2023-03-01T22:06:47;-0.30;67.10
19180;DHT22;9722;48.754;8.868;2023-03-01T22:10:08;-0.30;67.20
19180;DHT22;9722;48.754;8.868;2023-03-01T22:13:29;-0.30;67.40
19180;DHT22;9722;48.754;8.868;2023-03-01T22:16:49;-0.30;67.50
19180;DHT22;9722;48.754;8.868;2023-03-01T22:20:13;-0.40;67.60
19180;DHT22;9722;48.754;8.868;2023-03-01T22:23:35;-0.40;67.80
19180;DHT22;9722;48.754;8.868;2023-03-01T22:26:55;-0.50;67.70
19180;DHT22;9722;48.754;8.868;2023-03-01T22:30:16;-0.40;68.20
19180;DHT22;9722;48.754;8.868;2023-03-01T22:33:37;-0.50;68.20
19180;DHT22;9722;48.754;8.868;2023-03-01T22:36:57;-0.50;68.30
19180;DHT22;9722;48.754;8.868;2023-03-01T22:40:18;-0.50;68.60
19180;DHT22;9722;48.754;8.868;2023-03-01T22:43:38;-0.50;68.70
19180;DHT22;9722;48.754;8.868;2023-03-01T22:46:59;-0.60;68.80
19180;DHT22;9722;48.754;8.868;2023-03-01T22:50:20;-0.60;68.90
19180;DHT22;9722;48.754;8.868;2023-03-01T22:53:40;-0.60;69.00
19180;DHT22;9722;48.754;8.868;2023-03-01T22:57:01;-0.70;69.10
19180;DHT22;9722;48.754;8.868;2023-03-01T23:00:23;-0.70;69.40
19180;DHT22;9722;48.754;8.868;2023-03-01T23:03:44;-0.70;69.60
19180;DHT22;9722;48.754;8.868;2023-03-01T23:07:05;-0.70;69.80
19180;DHT22;9722;48.754;8.868;2023-03-01T23:10:25;-0.70;69.90
19180;DHT22;9722;48.754;8.868;2023-03-01T23:13:46;-0.80;69.90
19180;DHT22;9722;48.754;8.868;2023-03-01T23:17:07;-0.80;70.30
19180;DHT22;9722;48.754;8.868;2023-03-01T23:20:29;-0.80;70.30
19180;DHT22;9722;48.754;8.868;2023-03-01T23:23:50;-0.90;70.20
19180;DHT22;9722;48.754;8.868;2023-03-01T23:27:10;-0.90;70.70